Latest Weather Observations for Robe Airport

IDS60801

Issued at 12:02 pm CDT Saturday 20 December 2014 (issued every 30 minutes, with the page automatically refreshed every 10 minutes)

About weather observations | Map of weather stations | Latest weather observations for SA | Other Formats
Station Details ID: 026105 Name: ROBE AIRFIELD Lat: -37.18 Lon: 139.81 Height: 3.0 m
Data from the previous 72 hours. | See also: Recent months at Robe Airport
Date/Time
CDT
Temp
°C
App
Temp
°C
Dew
Point
Rel
Hum
%
Delta-T
°C
Wind Press
QNH
hPa
Press
MSL
hPa
Rain
since 9 am
mm
Dir
 
Spd
km/h
Gust
km/h
Spd
kts
Gust
kts
20/12:00pm 20.1 18.0 11.3 57 4.8 SW 13 20 7 11 1020.0 1020.0 0.0
20/11:30am 19.3 17.0 10.6 57 4.7 SW 13 22 7 12 1020.2 1020.2 0.0
20/11:00am 19.4 17.2 10.9 58 4.6 SW 13 24 7 13 1020.2 1020.2 0.0
20/10:30am 18.7 17.2 10.5 59 4.4 WSW 9 17 5 9 1020.4 1020.4 0.0
20/10:00am 18.7 17.3 10.8 60 4.3 WSW 9 19 5 10 1020.5 1020.5 0.0
20/09:30am 18.5 17.3 10.3 59 4.4 W 7 13 4 7 1020.7 1020.7 0.0
20/09:00am 18.0 16.1 10.4 61 4.0 SW 11 17 6 9 1020.6 1020.6 0.0
20/08:30am 17.1 16.2 10.7 66 3.4 WSW 6 11 3 6 1020.4 1020.4 0.0
20/08:00am 16.7 16.1 10.5 67 3.3 W 4 7 2 4 1020.1 1020.1 0.0
20/07:30am 16.2 15.9 11.6 74 2.5 S 4 7 2 4 1019.7 1019.7 0.0
20/07:00am 14.4 15.2 12.4 88 1.1 CALM 0 0 0 0 1019.4 1019.4 0.0
20/06:30am 13.4 14.1 12.3 93 0.6 CALM 0 0 0 0 1019.0 1019.0 0.0
20/06:00am 12.1 12.3 10.7 91 0.7 CALM 0 0 0 0 1018.7 1018.7 0.0
20/05:30am 11.8 12.0 10.5 92 0.7 CALM 0 0 0 0 1018.6 1018.6 0.0
20/05:00am 12.7 13.2 11.6 93 0.6 CALM 0 0 0 0 1018.5 1018.5 0.0
20/04:30am 12.0 12.4 11.1 94 0.5 CALM 0 0 0 0 1018.4 1018.4 0.0
20/04:00am 11.3 11.5 10.4 94 0.5 CALM 0 0 0 0 1018.5 1018.5 0.0
20/03:30am 10.3 10.2 9.4 94 0.4 CALM 0 0 0 0 1018.8 1018.8 0.0
20/03:00am 9.3 8.9 8.1 92 0.6 CALM 0 0 0 0 1018.8 1018.8 0.0
20/02:30am 9.3 8.8 7.7 90 0.8 CALM 0 0 0 0 1019.0 1019.0 0.0
20/02:00am 10.4 10.2 9.0 91 0.7 CALM 0 0 0 0 1019.3 1019.3 0.0
20/01:30am 10.6 10.4 9.2 91 0.7 CALM 0 0 0 0 1019.8 1019.8 0.0
20/01:00am 10.7 10.6 9.3 91 0.7 CALM 0 0 0 0 1020.1 1020.1 0.0
20/12:30am 10.4 10.2 9.0 91 0.7 CALM 0 0 0 0 1020.3 1020.3 0.0
20/12:00am 10.1 9.8 8.7 91 0.7 CALM 0 0 0 0 1020.7 1020.7 0.0
 
Date/Time
CDT
Temp
°C
App
Temp
°C
Dew
Point
Rel
Hum
%
Delta-T
°C
Wind Press
QNH
hPa
Press
MSL
hPa
Rain
since 9 am
mm
Dir
 
Spd
km/h
Gust
km/h
Spd
kts
Gust
kts
19/11:30pm 10.1 9.7 8.4 89 0.8 CALM 0 0 0 0 1020.9 1020.9 0.0
19/11:00pm 10.2 9.8 8.1 87 1.0 CALM 0 0 0 0 1021.1 1021.1 0.0
19/10:30pm 11.1 10.4 8.7 85 1.2 SW 2 4 1 2 1021.2 1021.2 0.0
19/10:00pm 11.7 11.0 8.4 80 1.6 SW 2 2 1 1 1021.0 1021.0 0.0
19/09:30pm 13.4 12.5 9.3 76 2.1 SW 4 6 2 3 1020.9 1020.9 0.0
19/09:00pm 14.0 12.6 9.4 74 2.3 SSW 7 9 4 5 1020.8 1020.8 0.0
19/08:30pm 14.8 13.0 9.6 71 2.7 SW 9 11 5 6 1020.9 1020.9 0.0
19/08:00pm 16.0 14.0 10.3 69 3.0 SW 11 17 6 9 1020.9 1020.9 0.0
19/07:30pm 16.8 14.8 10.2 65 3.5 SW 11 19 6 10 1020.8 1020.8 0.0
19/07:00pm 17.3 14.9 10.2 63 3.8 SW 13 22 7 12 1020.6 1020.6 0.0
19/06:30pm 17.4 14.5 9.6 60 4.1 SW 15 26 8 14 1020.5 1020.5 0.0
19/06:00pm 17.3 14.9 10.0 62 3.8 WSW 13 22 7 12 1020.5 1020.5 0.0
19/05:30pm 17.1 14.2 9.5 61 4.0 SW 15 24 8 13 1020.4 1020.4 0.0
19/05:00pm 17.5 14.9 9.2 58 4.3 SW 13 24 7 13 1020.4 1020.4 0.0
19/04:30pm 18.5 15.2 9.6 56 4.7 SW 17 26 9 14 1020.5 1020.5 0.0
19/04:00pm 18.4 14.9 8.9 54 4.9 SW 17 24 9 13 1020.6 1020.6 0.0
19/03:30pm 19.1 15.7 9.3 53 5.1 SW 17 30 9 16 1020.6 1020.6 0.0
19/03:00pm 18.8 15.4 9.0 53 5.1 SW 17 24 9 13 1020.6 1020.6 0.0
19/02:30pm 18.5 16.1 10.1 58 4.5 SW 13 26 7 14 1020.5 1020.5 0.0
19/02:00pm 18.9 15.6 9.7 55 4.9 SW 17 28 9 15 1020.5 1020.5 0.0
19/01:30pm 18.8 16.2 9.3 54 5.0 WSW 13 24 7 13 1020.7 1020.7 0.0
19/01:00pm 18.6 15.6 9.1 54 5.0 WSW 15 26 8 14 1020.6 1020.6 0.0
19/12:30pm 18.6 15.8 8.6 52 5.2 WSW 13 20 7 11 1020.6 1020.6 0.0
19/12:00pm 18.2 15.8 8.7 54 4.9 SW 11 19 6 10 1020.6 1020.6 0.0
19/11:30am 17.3 14.1 6.8 50 5.2 SW 13 26 7 14 1020.6 1020.6 0.0
19/11:00am 18.1 15.0 8.9 55 4.8 SSW 15 24 8 13 1020.4 1020.4 0.0
19/10:30am 17.2 13.6 8.4 56 4.5 SSW 17 26 9 14 1020.4 1020.4 0.0
19/10:00am 16.9 13.3 8.3 57 4.4 SSW 17 24 9 13 1020.1 1020.1 0.0
19/09:30am 16.3 13.1 8.3 59 4.0 SW 15 22 8 12 1020.1 1020.1 0.0
19/09:00am 16.1 12.7 7.8 58 4.2 SW 15 24 8 13 1019.9 1019.9 2.4
19/08:30am 16.3 12.7 8.3 59 4.0 SSW 17 26 9 14 1019.5 1019.5 2.4
19/08:00am 15.8 12.9 8.3 61 3.8 SW 13 22 7 12 1019.1 1019.1 2.4
19/07:30am 15.4 11.9 8.6 64 3.4 SSW 17 20 9 11 1018.8 1018.8 2.4
19/07:00am 14.7 12.0 9.1 69 2.9 SSW 13 20 7 11 1018.3 1018.3 2.4
19/06:30am 13.6 13.8 10.4 81 1.7 CALM 0 0 0 0 1017.9 1017.9 2.4
19/06:00am 11.4 10.2 8.1 80 1.6 SW 4 4 2 2 1017.7 1017.7 2.4
19/05:30am 11.7 9.9 7.8 77 1.9 SW 7 11 4 6 1017.4 1017.4 2.4
19/05:00am 12.4 10.5 7.7 73 2.3 SW 7 11 4 6 1017.2 1017.2 2.4
19/04:30am 12.8 10.7 8.1 73 2.3 SW 9 13 5 7 1017.1 1017.1 2.4
19/04:00am 12.8 11.2 8.9 77 2.0 SW 7 13 4 7 1017.0 1017.0 2.2
19/03:30am 12.8 11.1 9.8 82 1.5 SW 9 15 5 8 1016.8 1016.8 2.2
19/03:00am 11.8 10.2 8.8 82 1.5 WSW 7 11 4 6 1016.6 1016.6 2.2
19/02:30am 12.1 11.0 9.8 86 1.2 W 6 9 3 5 1016.7 1016.7 2.2
19/02:00am 12.3 11.2 10.0 86 1.2 WSW 6 7 3 4 1016.8 1016.8 2.2
19/01:30am 12.5 11.8 9.9 84 1.3 WSW 4 6 2 3 1016.9 1016.9 2.2
19/01:00am 13.3 10.6 10.5 83 1.5 SSW 15 24 8 13 1017.0 1017.0 2.2
19/12:30am 13.7 12.0 8.5 71 2.6 SW 7 13 4 7 1016.9 1016.9 2.2
19/12:00am 13.4 11.4 8.5 72 2.4 SW 9 15 5 8 1016.7 1016.7 2.2
 
Date/Time
CDT
Temp
°C
App
Temp
°C
Dew
Point
Rel
Hum
%
Delta-T
°C
Wind Press
QNH
hPa
Press
MSL
hPa
Rain
since 9 am
mm
Dir
 
Spd
km/h
Gust
km/h
Spd
kts
Gust
kts
18/11:30pm 14.1 11.7 8.7 70 2.7 SSW 11 20 6 11 1016.5 1016.5 2.2
18/11:00pm 14.8 11.9 8.3 65 3.3 SW 13 20 7 11 1016.4 1016.4 2.2
18/10:30pm 14.1 11.0 7.4 64 3.3 SW 13 24 7 13 1016.2 1016.2 2.2
18/10:00pm 14.2 11.2 7.9 66 3.1 SW 13 20 7 11 1016.1 1016.1 2.2
18/09:30pm 14.3 11.4 8.3 67 3.0 SW 13 20 7 11 1015.9 1015.9 2.2
18/09:00pm 14.3 11.5 8.5 68 2.9 SW 13 22 7 12 1015.4 1015.4 2.2
18/08:30pm 14.7 11.9 8.6 67 3.1 SW 13 24 7 13 1015.2 1015.2 2.2
18/08:00pm 15.5 11.5 8.3 62 3.6 SW 19 30 10 16 1014.9 1014.9 2.2
18/07:30pm 15.6 11.7 8.8 64 3.5 SW 19 30 10 16 1014.5 1014.5 2.2
18/07:00pm 16.9 12.8 8.8 59 4.2 SW 20 32 11 17 1014.1 1014.1 2.2
18/06:30pm 17.0 13.0 8.9 59 4.2 SW 20 33 11 18 1013.5 1013.5 2.2
18/06:00pm 17.3 12.3 9.5 60 4.1 SW 26 35 14 19 1013.3 1013.3 2.2
18/05:30pm 17.1 12.7 8.8 58 4.3 SW 22 33 12 18 1013.0 1013.0 2.2
18/05:00pm 17.2 12.0 8.9 58 4.3 SW 26 37 14 20 1012.8 1012.8 2.2
18/04:30pm 18.8 14.4 9.0 53 5.1 SW 22 33 12 18 1012.4 1012.4 2.2
18/04:00pm 18.3 13.1 8.8 54 4.9 WSW 26 35 14 19 1012.1 1012.1 2.2
18/03:30pm 19.3 15.0 9.2 52 5.3 WSW 22 39 12 21 1012.0 1012.0 2.2
18/03:00pm 19.4 15.2 9.9 54 5.1 WSW 22 41 12 22 1011.6 1011.6 2.2
18/02:30pm 18.7 13.7 9.5 55 4.9 WSW 26 43 14 23 1011.1 1011.1 2.2
18/02:00pm 19.4 15.4 10.4 56 4.8 WSW 22 37 12 20 1010.9 1010.9 2.2
18/01:30pm 19.1 14.2 9.9 55 4.9 SW 26 41 14 22 1010.6 1010.6 2.2
18/01:00pm 18.2 15.1 12.2 68 3.3 WSW 20 35 11 19 1010.6 1010.6 2.2
18/12:30pm 18.4 15.5 12.2 67 3.4 WSW 19 30 10 16 1010.1 1010.1 2.2
18/12:00pm 16.6 13.2 10.7 68 3.1 WSW 19 32 10 17 1009.7 1009.7 2.2
18/11:30am 15.7 12.8 12.8 83 1.6 WSW 20 35 11 19 1009.2 1009.2 2.2
18/11:00am 16.3 14.1 14.5 89 1.0 WSW 19 30 10 16 1008.9 1008.9 2.2
18/10:30am 15.6 13.7 14.3 92 0.7 WSW 17 33 9 18 1008.6 1008.6 2.2
18/10:01am 18.2 13.1 13.1 72 2.9 WNW 32 52 17 28 1008.5 1008.5 0.4
18/10:00am 18.8 14.0 13.0 69 3.3 WNW 30 39 16 21 1008.2 1008.2 0.0
18/09:30am 18.7 13.5 12.9 69 3.3 WNW 32 46 17 25 1007.9 1007.9 0.0
18/09:00am 18.9 15.0 13.3 70 3.2 WNW 26 37 14 20 1007.7 1007.7 0.0
18/08:30am 18.4 14.9 13.5 73 2.8 WNW 24 39 13 21 1007.3 1007.3 0.0
18/08:00am 17.1 14.4 13.6 80 2.0 WNW 20 32 11 17 1006.9 1006.9 0.0
18/07:30am 16.0 13.1 12.9 82 1.7 WNW 20 32 11 17 1006.8 1006.8 0.0
18/07:00am 16.4 12.9 12.2 76 2.3 WNW 22 32 12 17 1006.8 1006.8 0.0
18/06:30am 15.4 11.6 11.0 75 2.3 NW 22 30 12 16 1006.5 1006.5 0.0
18/06:00am 15.8 10.8 12.2 79 2.0 NW 30 48 16 26 1006.2 1006.2 0.0
18/05:58am 15.8 11.2 12.4 80 1.9 NW 28 48 15 26 1006.2 1006.2 0.0
18/05:30am 15.9 12.5 12.5 80 1.9 NW 22 32 12 17 1006.0 1006.0 0.0
18/05:00am 16.0 12.8 12.0 77 2.2 NW 20 30 11 16 1005.8 1005.8 0.0
18/04:30am 15.2 12.1 11.6 79 1.9 NW 19 26 10 14 1005.7 1005.7 0.0
18/04:00am 15.1 11.9 11.3 78 2.0 NW 19 26 10 14 1005.7 1005.7 0.0
18/03:30am 14.9 12.0 10.9 77 2.1 NW 17 22 9 12 1006.0 1006.0 0.0
18/03:00am 14.7 11.7 10.7 77 2.1 NW 17 24 9 13 1006.1 1006.1 0.0
18/02:30am 14.7 11.2 10.1 74 2.4 NW 19 24 10 13 1006.3 1006.3 0.0
18/02:00am 11.2 8.8 8.6 84 1.3 N 11 13 6 7 1006.6 1006.6 0.0
18/01:30am 13.5 11.2 9.0 74 2.3 NNW 11 17 6 9 1006.8 1006.8 0.0
18/01:00am 14.4 11.5 9.8 74 2.4 NNW 15 19 8 10 1007.1 1007.1 0.0
18/12:30am 14.5 11.7 9.9 74 2.4 NW 15 20 8 11 1007.5 1007.5 0.0
18/12:00am 12.8 11.3 9.1 78 1.9 N 7 9 4 5 1007.9 1007.9 0.0
 
Date/Time
CDT
Temp
°C
App
Temp
°C
Dew
Point
Rel
Hum
%
Delta-T
°C
Wind Press
QNH
hPa
Press
MSL
hPa
Rain
since 9 am
mm
Dir
 
Spd
km/h
Gust
km/h
Spd
kts
Gust
kts
17/11:30pm 12.9 10.5 8.8 76 2.1 N 11 15 6 8 1007.8 1007.8 0.0
17/11:00pm 12.6 10.6 8.5 76 2.0 N 9 11 5 6 1007.8 1007.8 0.0
17/10:30pm 13.2 11.6 8.9 75 2.2 N 7 9 4 5 1008.0 1008.0 0.0
17/10:00pm 12.9 11.4 9.0 77 2.0 N 7 7 4 4 1008.1 1008.1 0.0
17/09:30pm 12.9 11.4 8.4 74 2.2 NNW 6 7 3 4 1008.0 1008.0 0.0
17/09:00pm 14.7 13.1 8.9 68 3.0 NW 7 11 4 6 1008.0 1008.0 0.0
17/08:30pm 14.7 13.1 8.9 68 3.0 NW 7 9 4 5 1008.4 1008.4 0.0
17/08:00pm 15.1 13.1 8.6 65 3.3 NW 9 13 5 7 1008.5 1008.5 0.0
17/07:30pm 16.4 14.1 9.1 62 3.8 NW 11 17 6 9 1008.4 1008.4 0.0
17/07:00pm 17.2 14.6 9.4 60 4.1 NW 13 19 7 10 1008.4 1008.4 0.0
17/06:30pm 17.3 14.8 8.4 56 4.6 NW 11 17 6 9 1008.1 1008.1 0.0
17/06:00pm 17.6 14.9 9.0 57 4.5 NW 13 19 7 10 1008.1 1008.1 0.0
17/05:30pm 17.7 14.5 8.6 55 4.7 NW 15 22 8 12 1008.2 1008.2 0.0
17/05:00pm 18.2 15.8 8.7 54 4.9 NNW 11 20 6 11 1008.2 1008.2 0.0
17/04:30pm 17.8 14.6 8.6 55 4.8 NW 15 24 8 13 1008.6 1008.6 0.0
17/04:00pm 18.5 14.7 7.6 49 5.5 WNW 17 28 9 15 1009.0 1009.0 0.0
17/03:30pm 18.8 14.2 6.3 44 6.2 WNW 20 28 11 15 1009.2 1009.2 0.0
17/03:00pm 18.6 14.4 8.3 51 5.3 NW 20 28 11 15 1009.4 1009.4 0.0
17/02:30pm 18.3 14.0 7.7 50 5.4 NW 20 28 11 15 1009.6 1009.6 0.0
17/02:00pm 18.4 13.7 7.8 50 5.4 NW 22 28 12 15 1009.7 1009.7 0.0
17/01:30pm 18.8 14.5 7.9 49 5.6 NW 20 30 11 16 1009.9 1009.9 0.0
17/01:00pm 18.7 14.0 7.8 49 5.6 NW 22 32 12 17 1010.1 1010.1 0.0
17/12:30pm 18.1 13.8 7.8 51 5.2 NW 20 30 11 16 1010.4 1010.4 0.0

Other Formats:

Comma delimited format used in spreadsheet applications
http://www.bom.gov.au/fwo/IDS60801/IDS60801.95816.axf

JavaScript Object Notation format (JSON) in row-major order
http://www.bom.gov.au/fwo/IDS60801/IDS60801.95816.json